Login to view products.  
Thursday, February 22, 2018 (02:28 UTC)
Al Bateen Executive Airport
ICAO Code: OMAD
IATA Code: AZI
  • METAR OMAD 220200Z VRB01KT 6000 NSC 19/16 Q1011 BECMG 4000 HZ=
  • TAF OMAD 212300Z 2200/2306 VRB02KT 8000 NSC PROB40 TEMPO 2201/2204 4000 HZ PROB30 TEMPO 2201/2203 1200 BCFG BKN009 BECMG 2208/2210 33008KT BECMG 2217/2219 08005KT=